createdAt,value
2017-09-14T00:01:12.153Z,12.50
2017-09-14T00:03:39.266Z,12.50
2017-09-14T00:06:05.659Z,12.50
2017-09-14T00:08:31.993Z,12.50
2017-09-14T00:10:58.394Z,12.50
2017-09-14T00:13:24.779Z,12.50
2017-09-14T00:15:51.150Z,12.50
2017-09-14T00:18:17.546Z,12.50
2017-09-14T00:20:44.883Z,12.40
2017-09-14T00:23:11.547Z,12.40
2017-09-14T00:25:37.917Z,12.40
2017-09-14T00:28:04.286Z,12.40
2017-09-14T00:30:30.660Z,12.40
2017-09-14T00:32:57.045Z,12.40
2017-09-14T00:35:23.474Z,12.40
2017-09-14T00:37:49.842Z,12.40
2017-09-14T00:40:16.232Z,12.40
2017-09-14T00:42:42.575Z,12.40
2017-09-14T00:45:08.967Z,12.30
2017-09-14T00:47:35.365Z,12.30
2017-09-14T00:50:02.898Z,12.30
2017-09-14T00:52:29.367Z,12.30
2017-09-14T00:54:55.778Z,12.30
2017-09-14T00:57:22.898Z,12.30
2017-09-14T00:59:49.279Z,12.30
2017-09-14T01:02:15.648Z,12.30
2017-09-14T01:04:42.046Z,12.30
2017-09-14T01:07:08.419Z,12.20
2017-09-14T01:09:34.782Z,12.20
2017-09-14T01:12:02.188Z,12.30
2017-09-14T01:14:28.590Z,12.20
2017-09-14T01:16:54.930Z,12.30
2017-09-14T01:19:21.348Z,12.20
2017-09-14T01:21:47.746Z,12.20
2017-09-14T01:24:14.170Z,12.20
2017-09-14T01:26:40.575Z,12.20
2017-09-14T01:29:06.993Z,12.20
2017-09-14T01:31:33.390Z,12.20
2017-09-14T01:34:00.121Z,12.20
2017-09-14T01:36:26.510Z,12.20
2017-09-14T01:38:52.886Z,12.20
2017-09-14T01:41:19.292Z,12.20
2017-09-14T01:43:45.665Z,12.20
2017-09-14T01:46:12.063Z,12.20
2017-09-14T01:48:38.481Z,12.20
2017-09-14T01:51:05.606Z,12.10
2017-09-14T01:53:32.000Z,12.10
2017-09-14T01:55:58.362Z,12.10
2017-09-14T01:58:24.712Z,12.10
2017-09-14T02:00:51.102Z,12.10
2017-09-14T02:03:17.471Z,12.10
2017-09-14T02:05:43.864Z,12.10
2017-09-14T02:08:10.635Z,12.10
2017-09-14T02:10:37.780Z,12.20
2017-09-14T02:13:04.139Z,12.20
2017-09-14T02:15:31.269Z,12.20
2017-09-14T02:17:57.615Z,12.20
2017-09-14T02:20:24.734Z,12.10
2017-09-14T02:22:51.108Z,12.10
2017-09-14T02:25:17.826Z,12.10
2017-09-14T02:27:44.897Z,12.00
2017-09-14T02:30:11.235Z,12.00
2017-09-14T02:32:37.608Z,12.00
2017-09-14T02:35:03.947Z,11.90
2017-09-14T02:37:31.081Z,11.90
2017-09-14T02:39:57.446Z,11.80
2017-09-14T02:42:24.973Z,11.80
2017-09-14T02:44:51.297Z,11.70
2017-09-14T02:47:17.665Z,11.70
2017-09-14T02:49:44.079Z,11.90
2017-09-14T02:52:11.164Z,12.30
2017-09-14T02:54:37.542Z,12.30
2017-09-14T02:57:03.920Z,12.30
2017-09-14T02:59:30.277Z,12.30
2017-09-14T03:01:56.663Z,12.30
2017-09-14T03:04:23.325Z,12.40
2017-09-14T03:06:49.706Z,12.40
2017-09-14T03:09:16.833Z,12.40
2017-09-14T03:11:43.208Z,12.30
2017-09-14T03:14:09.546Z,12.30
2017-09-14T03:16:35.921Z,12.30
2017-09-14T03:19:02.262Z,12.20
2017-09-14T03:21:28.656Z,12.10
2017-09-14T03:23:55.020Z,12.00
2017-09-14T03:26:21.687Z,11.80
2017-09-14T03:28:48.048Z,11.70
2017-09-14T03:31:14.400Z,11.60
2017-09-14T03:33:40.783Z,11.60
2017-09-14T03:36:07.116Z,11.70
2017-09-14T03:38:33.588Z,11.70
2017-09-14T03:40:59.948Z,11.70
2017-09-14T03:43:27.394Z,11.80
2017-09-14T03:45:53.748Z,11.70
2017-09-14T03:48:20.886Z,11.80
2017-09-14T03:50:48.025Z,11.80
2017-09-14T03:53:14.407Z,11.80
2017-09-14T03:55:40.771Z,11.70
2017-09-14T03:58:07.123Z,11.70
2017-09-14T04:00:34.258Z,11.50
2017-09-14T04:03:00.674Z,11.50
2017-09-14T04:05:27.045Z,11.50
2017-09-14T04:07:53.435Z,11.40
2017-09-14T04:10:19.787Z,11.40
2017-09-14T04:12:46.903Z,11.20
2017-09-14T04:15:13.289Z,11.20
2017-09-14T04:17:39.984Z,11.20
2017-09-14T04:20:06.343Z,11.10
2017-09-14T04:22:32.716Z,11.10
2017-09-14T04:24:59.068Z,11.10
2017-09-14T04:27:25.447Z,11.00
2017-09-14T04:29:51.790Z,11.00
2017-09-14T04:32:18.190Z,11.00
2017-09-14T04:34:44.853Z,11.00
2017-09-14T04:37:11.239Z,11.00
2017-09-14T04:39:38.368Z,10.90
2017-09-14T04:42:04.756Z,10.90
2017-09-14T04:44:31.137Z,10.80
2017-09-14T04:46:57.765Z,10.80
2017-09-14T04:49:24.250Z,10.80
2017-09-14T04:51:50.638Z,10.80
2017-09-14T04:54:17.057Z,10.70
2017-09-14T04:56:43.449Z,10.70
2017-09-14T04:59:09.835Z,10.70
2017-09-14T05:01:36.917Z,10.70
2017-09-14T05:04:03.619Z,10.60
2017-09-14T05:06:30.721Z,10.60
2017-09-14T05:08:57.056Z,10.60
2017-09-14T05:11:23.449Z,10.60
2017-09-14T05:13:49.793Z,10.60
2017-09-14T05:16:16.135Z,10.60
2017-09-14T05:18:42.519Z,10.60
2017-09-14T05:21:09.905Z,10.70
2017-09-14T05:23:36.244Z,10.70
2017-09-14T05:26:02.602Z,10.80
2017-09-14T05:28:28.964Z,10.90
2017-09-14T05:30:56.052Z,11.00
2017-09-14T05:33:22.345Z,11.00
2017-09-14T05:35:49.486Z,11.20
2017-09-14T05:38:16.587Z,11.30
2017-09-14T05:40:42.920Z,11.30
2017-09-14T05:43:09.546Z,11.30
2017-09-14T05:45:35.915Z,11.40
2017-09-14T05:48:02.394Z,11.40
2017-09-14T05:50:28.752Z,11.50
2017-09-14T05:52:55.367Z,11.60
2017-09-14T05:55:21.717Z,11.60
2017-09-14T05:57:48.084Z,11.70
2017-09-14T06:00:15.512Z,11.80
2017-09-14T06:02:41.859Z,11.80
2017-09-14T06:05:08.240Z,11.90
2017-09-14T06:07:34.600Z,12.00
2017-09-14T06:10:00.928Z,12.10
2017-09-14T06:12:27.331Z,12.20
2017-09-14T06:14:53.721Z,12.30
2017-09-14T06:17:20.088Z,12.40
2017-09-14T06:19:46.457Z,12.50
2017-09-14T06:22:12.785Z,12.60
2017-09-14T06:24:39.162Z,12.70
2017-09-14T06:27:05.862Z,12.70
2017-09-14T06:29:32.971Z,12.80
2017-09-14T06:31:59.310Z,12.80
2017-09-14T06:34:25.722Z,12.90
2017-09-14T06:36:52.077Z,13.00
2017-09-14T06:39:18.466Z,13.10
2017-09-14T06:41:44.804Z,13.10
2017-09-14T06:44:11.217Z,13.20
2017-09-14T06:46:37.598Z,13.40
2017-09-14T06:49:04.256Z,13.40
2017-09-14T06:51:31.368Z,13.70
2017-09-14T06:53:57.730Z,13.70
2017-09-14T06:56:24.103Z,13.80
2017-09-14T06:58:51.226Z,14.10
2017-09-14T07:01:17.630Z,14.10
2017-09-14T07:03:43.975Z,14.20
2017-09-14T07:06:10.347Z,14.40
2017-09-14T07:08:36.680Z,14.50
2017-09-14T07:11:03.358Z,14.60
2017-09-14T07:13:29.704Z,14.70
2017-09-14T07:15:56.799Z,14.90
2017-09-14T07:18:23.163Z,14.90
2017-09-14T07:20:49.530Z,15.00
2017-09-14T07:23:15.887Z,15.10
2017-09-14T07:25:42.256Z,15.20
2017-09-14T07:28:08.875Z,15.30
2017-09-14T07:30:35.227Z,15.30
2017-09-14T07:33:02.327Z,15.50
2017-09-14T07:35:28.685Z,15.50
2017-09-14T07:37:55.058Z,15.60
2017-09-14T07:40:21.440Z,15.70
2017-09-14T07:42:47.796Z,15.90
2017-09-14T07:45:15.229Z,16.10
2017-09-14T07:47:41.578Z,16.00
2017-09-14T07:50:08.755Z,16.30
2017-09-14T07:52:35.114Z,16.30
2017-09-14T07:55:01.452Z,16.40
2017-09-14T07:57:27.863Z,16.50
2017-09-14T07:59:54.216Z,16.70
2017-09-14T08:02:33.602Z,16.80
2017-09-14T08:05:05.585Z,17.10
2017-09-14T08:07:32.587Z,17.10
2017-09-14T08:09:58.991Z,17.20
2017-09-14T08:12:25.351Z,17.30
2017-09-14T08:14:52.483Z,17.40
2017-09-14T08:17:19.646Z,17.40
2017-09-14T08:19:46.813Z,17.50
2017-09-14T08:22:13.224Z,17.50
2017-09-14T08:24:40.306Z,17.90
2017-09-14T08:27:06.667Z,17.90
2017-09-14T08:29:33.314Z,18.10
2017-09-14T08:31:59.669Z,18.40
2017-09-14T08:34:26.768Z,18.70
2017-09-14T08:36:53.157Z,18.70
2017-09-14T08:39:20.240Z,19.00
2017-09-14T08:41:46.634Z,19.00
2017-09-14T08:44:12.988Z,19.20
2017-09-14T08:46:39.330Z,19.40
2017-09-14T08:49:05.813Z,19.60
2017-09-14T08:51:33.245Z,20.00
2017-09-14T08:53:59.590Z,20.00
2017-09-14T08:56:26.690Z,20.20
2017-09-14T08:58:53.107Z,20.20
2017-09-14T09:01:19.477Z,20.30
2017-09-14T09:03:45.845Z,20.30
2017-09-14T09:06:12.194Z,20.40
2017-09-14T09:08:38.546Z,20.50
2017-09-14T09:11:04.899Z,20.50
2017-09-14T09:13:31.552Z,20.60
2017-09-14T09:15:57.892Z,20.60
2017-09-14T09:18:24.991Z,20.80
2017-09-14T09:20:51.360Z,20.80
2017-09-14T09:23:18.442Z,20.80
2017-09-14T09:25:44.797Z,20.70
2017-09-14T09:28:11.179Z,20.60
2017-09-14T09:30:37.557Z,20.20
2017-09-14T09:33:03.892Z,19.80
2017-09-14T09:35:30.549Z,19.50
2017-09-14T09:37:56.886Z,19.30
2017-09-14T09:40:23.983Z,19.00
2017-09-14T09:42:50.364Z,19.00
2017-09-14T09:45:17.466Z,19.00
2017-09-14T09:47:46.026Z,19.00
2017-09-14T09:50:12.400Z,18.90
2017-09-14T09:52:39.084Z,18.60
2017-09-14T09:55:05.409Z,18.40
2017-09-14T09:57:31.782Z,18.30
2017-09-14T09:59:58.125Z,18.20
2017-09-14T10:02:24.580Z,18.10
2017-09-14T10:04:51.723Z,18.00
2017-09-14T10:07:18.845Z,18.00
2017-09-14T10:09:45.188Z,18.00
2017-09-14T10:12:11.554Z,18.00
2017-09-14T10:14:37.884Z,17.90
2017-09-14T10:17:04.584Z,17.80
2017-09-14T10:19:30.973Z,17.90
2017-09-14T10:21:57.364Z,18.10
2017-09-14T10:24:24.467Z,17.70
2017-09-14T10:26:50.870Z,17.70
2017-09-14T10:29:17.236Z,17.50
2017-09-14T10:31:43.593Z,17.10
2017-09-14T10:34:10.348Z,16.80
2017-09-14T10:36:37.473Z,16.40
2017-09-14T10:39:03.911Z,16.30
2017-09-14T10:41:31.051Z,15.90
2017-09-14T10:43:57.384Z,15.90
2017-09-14T10:46:24.539Z,15.60
2017-09-14T10:48:50.980Z,15.60
2017-09-14T10:51:17.374Z,15.40
2017-09-14T10:53:43.739Z,15.20
2017-09-14T10:56:10.443Z,15.00
2017-09-14T10:58:36.805Z,14.80
2017-09-14T11:01:03.852Z,14.50
2017-09-14T11:03:30.233Z,14.40
2017-09-14T11:05:56.576Z,14.40
2017-09-14T11:08:22.950Z,14.30
2017-09-14T11:10:49.287Z,14.30
2017-09-14T11:13:15.695Z,14.30
2017-09-14T11:15:42.855Z,14.20
2017-09-14T11:18:09.512Z,14.20
2017-09-14T11:20:35.868Z,14.10
2017-09-14T11:23:02.226Z,14.00
2017-09-14T11:25:29.416Z,13.90
2017-09-14T11:27:55.766Z,13.80
2017-09-14T11:30:22.163Z,13.80
2017-09-14T11:32:48.514Z,13.70
2017-09-14T11:35:15.894Z,13.60
2017-09-14T11:37:42.255Z,13.60
2017-09-14T11:40:09.379Z,13.50
2017-09-14T11:42:35.779Z,13.50
2017-09-14T11:45:02.179Z,13.40
2017-09-14T11:47:28.595Z,13.30
2017-09-14T11:49:55.752Z,13.10
2017-09-14T11:52:23.149Z,12.90
2017-09-14T11:54:50.276Z,12.70
2017-09-14T11:57:16.602Z,12.60
2017-09-14T11:59:43.002Z,12.40
2017-09-14T12:02:10.100Z,12.00
2017-09-14T12:04:36.445Z,12.00
2017-09-14T12:07:02.836Z,11.90
2017-09-14T12:09:29.553Z,11.80
2017-09-14T12:11:56.665Z,11.60
2017-09-14T12:14:23.017Z,11.60
2017-09-14T12:16:50.134Z,11.40
2017-09-14T12:19:16.498Z,11.40
2017-09-14T12:21:43.928Z,11.40
2017-09-14T12:24:10.264Z,11.40
2017-09-14T12:26:36.933Z,11.40
2017-09-14T12:29:04.061Z,11.50
2017-09-14T12:31:30.457Z,11.40
2017-09-14T12:33:56.871Z,11.50
2017-09-14T12:36:23.292Z,11.50
2017-09-14T12:38:49.654Z,11.40
2017-09-14T12:41:16.037Z,11.50
2017-09-14T12:43:42.739Z,11.50
2017-09-14T12:46:09.041Z,11.50
2017-09-14T12:48:35.419Z,11.40
2017-09-14T12:51:01.813Z,11.30
2017-09-14T12:53:28.211Z,11.30
2017-09-14T12:55:54.597Z,11.30
2017-09-14T12:58:21.699Z,11.30
2017-09-14T13:00:48.080Z,11.30
2017-09-14T13:03:15.191Z,11.20
2017-09-14T13:05:41.957Z,11.20
2017-09-14T13:08:09.117Z,11.20
2017-09-14T13:10:36.248Z,11.20
2017-09-14T13:13:02.665Z,11.20
2017-09-14T13:15:29.049Z,11.30
2017-09-14T13:17:55.412Z,11.30
2017-09-14T13:20:21.784Z,11.30
2017-09-14T13:22:49.257Z,11.30
2017-09-14T13:25:15.643Z,11.30
2017-09-14T13:27:42.104Z,11.30
2017-09-14T13:30:09.263Z,11.30
2017-09-14T13:32:35.654Z,11.20
2017-09-14T13:35:02.412Z,11.20
2017-09-14T13:37:29.503Z,11.20
2017-09-14T13:39:55.872Z,11.20
2017-09-14T13:42:22.269Z,11.20
2017-09-14T13:44:48.718Z,11.10
2017-09-14T13:47:15.029Z,11.10
2017-09-14T13:49:41.403Z,11.10
2017-09-14T13:52:08.846Z,11.20
2017-09-14T13:54:35.201Z,11.20
2017-09-14T13:57:01.650Z,11.20
2017-09-14T13:59:28.029Z,11.20
2017-09-14T14:01:54.416Z,11.30
2017-09-14T14:04:20.833Z,11.30
2017-09-14T14:06:47.235Z,11.30
2017-09-14T14:09:13.643Z,11.30
2017-09-14T14:11:40.061Z,11.40
2017-09-14T14:14:06.750Z,11.40
2017-09-14T14:16:33.938Z,11.50
2017-09-14T14:19:00.309Z,11.50
2017-09-14T14:21:27.454Z,11.50
2017-09-14T14:23:53.851Z,11.50
2017-09-14T14:26:20.230Z,11.40
2017-09-14T14:28:47.344Z,11.30
2017-09-14T14:31:13.700Z,11.30
2017-09-14T14:33:40.806Z,11.30
2017-09-14T14:36:07.496Z,11.30
2017-09-14T14:38:34.625Z,11.20
2017-09-14T14:41:01.037Z,11.20
2017-09-14T14:43:27.427Z,11.20
2017-09-14T14:45:54.522Z,11.10
2017-09-14T14:48:21.041Z,11.10
2017-09-14T14:50:47.440Z,11.00
2017-09-14T14:53:13.796Z,11.00
2017-09-14T14:55:40.185Z,10.90
2017-09-14T14:58:06.531Z,10.90
2017-09-14T15:00:32.937Z,10.90
2017-09-14T15:02:59.371Z,10.90
2017-09-14T15:05:26.519Z,10.90
2017-09-14T15:07:52.921Z,10.90
2017-09-14T15:10:19.258Z,10.90
2017-09-14T15:12:45.605Z,10.90
2017-09-14T15:15:11.960Z,10.90
2017-09-14T15:17:40.010Z,10.90
2017-09-14T15:20:07.103Z,10.70
2017-09-14T15:22:33.539Z,10.70
2017-09-14T15:24:59.951Z,10.70
2017-09-14T15:27:26.320Z,10.60
2017-09-14T15:29:53.048Z,10.60
2017-09-14T15:32:19.439Z,10.50
2017-09-14T15:34:45.853Z,10.50
2017-09-14T15:37:18.192Z,10.40
2017-09-14T15:39:51.435Z,10.30
2017-09-14T15:42:23.983Z,10.30
2017-09-14T15:44:56.724Z,10.30
2017-09-14T15:47:23.100Z,10.30
2017-09-14T15:49:55.679Z,10.30
2017-09-14T15:52:22.067Z,10.30
2017-09-14T15:54:49.200Z,10.30
2017-09-14T15:57:15.598Z,10.30
2017-09-14T15:59:41.931Z,10.30
2017-09-14T16:02:08.310Z,10.30
2017-09-14T16:04:35.398Z,10.30
2017-09-14T16:07:02.074Z,10.30
2017-09-14T16:09:28.470Z,10.20
2017-09-14T16:11:54.819Z,10.20
2017-09-14T16:14:21.354Z,10.20
2017-09-14T16:16:47.867Z,10.20
2017-09-14T16:19:14.322Z,10.20
2017-09-14T16:21:40.714Z,10.20
2017-09-14T16:24:07.128Z,10.30
2017-09-14T16:26:33.534Z,10.20
2017-09-14T16:29:00.942Z,10.20
2017-09-14T16:31:27.351Z,10.20
2017-09-14T16:33:53.736Z,10.20
2017-09-14T16:36:20.217Z,10.20
2017-09-14T16:38:46.586Z,10.30
2017-09-14T16:41:12.976Z,10.20
2017-09-14T16:43:39.361Z,10.20
2017-09-14T16:46:06.072Z,10.20
2017-09-14T16:48:32.491Z,10.20
2017-09-14T16:50:58.871Z,10.20
2017-09-14T16:53:25.991Z,10.20
2017-09-14T16:55:52.392Z,10.10
2017-09-14T16:58:18.814Z,10.20
2017-09-14T17:00:45.197Z,10.20
2017-09-14T17:03:11.935Z,10.20
2017-09-14T17:05:38.318Z,10.20
2017-09-14T17:08:04.707Z,10.20
2017-09-14T17:10:31.078Z,10.20
2017-09-14T17:12:57.463Z,10.20
2017-09-14T17:15:23.854Z,10.10
2017-09-14T17:17:50.281Z,10.20
2017-09-14T17:20:16.659Z,10.30
2017-09-14T17:22:43.786Z,10.30
2017-09-14T17:25:10.540Z,10.20
2017-09-14T17:27:36.950Z,10.20
2017-09-14T17:30:03.367Z,10.20
2017-09-14T17:32:29.773Z,10.20
2017-09-14T17:34:56.187Z,10.20
2017-09-14T17:37:23.367Z,10.20
2017-09-14T17:39:49.797Z,10.20
2017-09-14T17:42:16.256Z,10.20
2017-09-14T17:44:42.697Z,10.20
2017-09-14T17:47:09.428Z,10.20
2017-09-14T17:49:35.972Z,10.30
2017-09-14T17:52:02.348Z,10.20
2017-09-14T17:54:28.793Z,10.20
2017-09-14T17:56:55.197Z,10.20
2017-09-14T17:59:21.625Z,10.20
2017-09-14T18:01:48.019Z,10.20
2017-09-14T18:04:14.474Z,10.20
2017-09-14T18:06:40.961Z,10.20
2017-09-14T18:09:07.728Z,10.20
2017-09-14T18:11:34.180Z,10.20
2017-09-14T18:14:01.281Z,10.20
2017-09-14T18:16:27.812Z,10.10
2017-09-14T18:18:54.338Z,10.10
2017-09-14T18:21:20.765Z,10.10
2017-09-14T18:23:47.242Z,10.10
2017-09-14T18:26:13.719Z,10.10
2017-09-14T18:28:40.182Z,10.10
2017-09-14T18:31:06.990Z,10.10
2017-09-14T18:33:33.408Z,10.10
2017-09-14T18:35:59.899Z,10.00
2017-09-14T18:38:26.423Z,10.00
2017-09-14T18:40:52.899Z,9.90
2017-09-14T18:43:26.360Z,9.90
2017-09-14T18:45:52.816Z,9.90
2017-09-14T18:48:20.056Z,9.80
2017-09-14T18:50:47.286Z,9.80
2017-09-14T18:53:13.766Z,9.80
2017-09-14T18:55:40.231Z,9.80
2017-09-14T18:58:07.033Z,9.80
2017-09-14T19:00:33.523Z,9.80
2017-09-14T19:02:59.989Z,9.70
2017-09-14T19:05:26.467Z,9.70
2017-09-14T19:07:54.518Z,9.80
2017-09-14T19:10:21.014Z,9.80
2017-09-14T19:12:47.541Z,9.80
2017-09-14T19:15:14.799Z,9.80
2017-09-14T19:17:41.993Z,9.80
2017-09-14T19:20:08.816Z,9.80
2017-09-14T19:22:35.318Z,9.80
2017-09-14T19:25:02.532Z,9.80
2017-09-14T19:27:28.974Z,9.80
2017-09-14T19:29:55.388Z,9.80
2017-09-14T19:32:21.837Z,9.90
2017-09-14T19:34:48.286Z,9.90
2017-09-14T19:37:15.473Z,9.80
2017-09-14T19:39:41.965Z,9.80
2017-09-14T19:42:09.142Z,9.80
2017-09-14T19:44:35.593Z,9.80
2017-09-14T19:47:02.012Z,9.80
2017-09-14T19:49:28.489Z,9.80
2017-09-14T19:51:54.929Z,9.80
2017-09-14T19:54:21.818Z,9.80
2017-09-14T19:56:48.280Z,9.70
2017-09-14T19:59:14.734Z,9.70
2017-09-14T20:01:41.223Z,9.70
2017-09-14T20:04:07.616Z,9.60
2017-09-14T20:06:34.788Z,9.50
2017-09-14T20:09:01.183Z,9.50
2017-09-14T20:11:28.420Z,9.50
2017-09-14T20:13:54.845Z,9.40
2017-09-14T20:16:21.302Z,9.40
2017-09-14T20:18:47.697Z,9.40
2017-09-14T20:21:14.116Z,9.40
2017-09-14T20:23:40.886Z,9.40
2017-09-14T20:26:07.290Z,9.40
2017-09-14T20:28:33.666Z,9.30
2017-09-14T20:31:00.844Z,9.30
2017-09-14T20:33:27.231Z,9.30
2017-09-14T20:35:53.630Z,9.30
2017-09-14T20:38:20.077Z,9.30
2017-09-14T20:40:46.750Z,9.20
2017-09-14T20:43:13.897Z,9.10
2017-09-14T20:45:41.037Z,9.10
2017-09-14T20:48:08.242Z,9.10
2017-09-14T20:50:34.646Z,9.10
2017-09-14T20:53:01.027Z,9.10
2017-09-14T20:55:27.419Z,9.10
2017-09-14T20:57:53.799Z,9.10
2017-09-14T21:00:20.153Z,9.20
2017-09-14T21:02:46.872Z,9.20
2017-09-14T21:05:13.259Z,9.30
2017-09-14T21:07:39.610Z,9.30
2017-09-14T21:10:06.027Z,9.40
2017-09-14T21:12:32.372Z,9.50
2017-09-14T21:14:58.669Z,9.50
2017-09-14T21:17:25.054Z,9.60
2017-09-14T21:19:52.513Z,9.60
2017-09-14T21:22:19.593Z,9.60
2017-09-14T21:24:46.710Z,9.60
2017-09-14T21:27:13.834Z,9.50
2017-09-14T21:29:40.196Z,9.50
2017-09-14T21:32:07.351Z,9.50
2017-09-14T21:34:33.679Z,9.50
2017-09-14T21:39:34.085Z,9.50
2017-09-14T21:42:00.841Z,9.50
2017-09-14T21:44:27.222Z,9.50
2017-09-14T21:46:53.590Z,9.50
2017-09-14T21:49:20.073Z,9.50
2017-09-14T21:51:46.419Z,9.50
2017-09-14T21:54:12.791Z,9.50
2017-09-14T21:56:39.899Z,9.50
2017-09-14T21:59:06.560Z,9.40
2017-09-14T22:01:32.909Z,9.50
2017-09-14T22:04:00.055Z,9.40
2017-09-14T22:06:27.160Z,9.50
2017-09-14T22:08:53.526Z,9.40
2017-09-14T22:11:20.662Z,9.50
2017-09-14T22:13:47.056Z,9.40
2017-09-14T22:16:13.745Z,9.50
2017-09-14T22:18:40.872Z,9.50
2017-09-14T22:21:07.271Z,9.50
2017-09-14T22:23:36.024Z,9.50
2017-09-14T22:26:02.414Z,9.40
2017-09-14T22:28:28.785Z,9.50
2017-09-14T22:30:55.172Z,9.50
2017-09-14T22:33:21.817Z,9.50
2017-09-14T22:35:48.905Z,9.50
2017-09-14T22:38:15.283Z,9.50
2017-09-14T22:40:41.627Z,9.50
2017-09-14T22:43:08.742Z,9.50
2017-09-14T22:45:35.405Z,9.50
2017-09-14T22:48:01.864Z,9.50
2017-09-14T22:50:28.250Z,9.40
2017-09-14T22:52:54.620Z,9.40
2017-09-14T22:55:21.701Z,9.40
2017-09-14T22:57:48.393Z,9.30
2017-09-14T23:00:15.487Z,9.40
2017-09-14T23:02:41.820Z,9.30
2017-09-14T23:05:08.211Z,9.40
2017-09-14T23:07:35.325Z,9.30
2017-09-14T23:10:01.986Z,9.30
2017-09-14T23:12:29.070Z,9.30
2017-09-14T23:14:55.438Z,9.20
2017-09-14T23:17:21.796Z,9.30
2017-09-14T23:19:48.176Z,9.20
2017-09-14T23:22:14.852Z,9.20
2017-09-14T23:24:41.942Z,9.10
2017-09-14T23:27:08.287Z,9.10
2017-09-14T23:29:34.647Z,9.10
2017-09-14T23:32:01.031Z,9.00
2017-09-14T23:34:27.695Z,9.00
2017-09-14T23:36:54.051Z,9.00
2017-09-14T23:39:20.387Z,8.90
2017-09-14T23:41:47.484Z,8.90
2017-09-14T23:44:13.907Z,8.80
2017-09-14T23:46:40.252Z,8.80
2017-09-14T23:49:06.626Z,8.80
2017-09-14T23:51:34.002Z,8.70
2017-09-14T23:54:01.127Z,8.70
2017-09-14T23:56:28.201Z,8.60
2017-09-14T23:58:54.564Z,8.60
